sensor_id;sensor_type;location;lat;lon;timestamp;temperature;humidity
42683;DHT22;28293;50.930;3.464;2023-04-06T00:01:09;9.20;69.70
42683;DHT22;28293;50.930;3.464;2023-04-06T00:03:36;9.20;69.90
42683;DHT22;28293;50.930;3.464;2023-04-06T00:06:02;9.20;70.00
42683;DHT22;28293;50.930;3.464;2023-04-06T00:08:27;9.20;70.00
42683;DHT22;28293;50.930;3.464;2023-04-06T00:10:54;9.10;70.00
42683;DHT22;28293;50.930;3.464;2023-04-06T00:13:19;9.10;70.30
42683;DHT22;28293;50.930;3.464;2023-04-06T00:15:45;9.10;70.50
42683;DHT22;28293;50.930;3.464;2023-04-06T00:18:11;9.10;70.50
42683;DHT22;28293;50.930;3.464;2023-04-06T00:20:40;9.10;70.70
42683;DHT22;28293;50.930;3.464;2023-04-06T00:23:06;9.10;70.80
42683;DHT22;28293;50.930;3.464;2023-04-06T00:25:31;9.10;71.00
42683;DHT22;28293;50.930;3.464;2023-04-06T00:27:57;9.10;71.10
42683;DHT22;28293;50.930;3.464;2023-04-06T00:30:23;9.00;71.20
42683;DHT22;28293;50.930;3.464;2023-04-06T00:32:48;9.10;71.30
42683;DHT22;28293;50.930;3.464;2023-04-06T00:35:14;9.00;71.30
42683;DHT22;28293;50.930;3.464;2023-04-06T00:37:41;9.00;71.40
42683;DHT22;28293;50.930;3.464;2023-04-06T00:40:07;9.00;71.50
42683;DHT22;28293;50.930;3.464;2023-04-06T00:42:33;8.90;71.50
42683;DHT22;28293;50.930;3.464;2023-04-06T00:45:00;9.00;71.60
42683;DHT22;28293;50.930;3.464;2023-04-06T00:47:26;8.90;71.50
42683;DHT22;28293;50.930;3.464;2023-04-06T00:49:53;9.00;71.50
42683;DHT22;28293;50.930;3.464;2023-04-06T00:52:20;8.90;71.40
42683;DHT22;28293;50.930;3.464;2023-04-06T00:54:46;8.90;71.60
42683;DHT22;28293;50.930;3.464;2023-04-06T00:57:13;8.90;71.60
42683;DHT22;28293;50.930;3.464;2023-04-06T00:59:39;8.90;71.60
42683;DHT22;28293;50.930;3.464;2023-04-06T01:02:06;8.90;71.60
42683;DHT22;28293;50.930;3.464;2023-04-06T01:04:32;8.80;71.60
42683;DHT22;28293;50.930;3.464;2023-04-06T01:06:58;8.90;71.70
42683;DHT22;28293;50.930;3.464;2023-04-06T01:09:24;8.90;71.70
42683;DHT22;28293;50.930;3.464;2023-04-06T01:11:50;8.90;71.80
42683;DHT22;28293;50.930;3.464;2023-04-06T01:14:15;8.80;71.80
42683;DHT22;28293;50.930;3.464;2023-04-06T01:16:42;8.80;71.80
42683;DHT22;28293;50.930;3.464;2023-04-06T01:19:09;8.80;71.80
42683;DHT22;28293;50.930;3.464;2023-04-06T01:21:39;8.80;71.90
42683;DHT22;28293;50.930;3.464;2023-04-06T01:24:05;8.80;71.90
42683;DHT22;28293;50.930;3.464;2023-04-06T01:26:32;8.80;71.90
42683;DHT22;28293;50.930;3.464;2023-04-06T01:28:58;8.80;72.00
42683;DHT22;28293;50.930;3.464;2023-04-06T01:31:24;8.80;72.00
42683;DHT22;28293;50.930;3.464;2023-04-06T01:33:50;8.80;72.10
42683;DHT22;28293;50.930;3.464;2023-04-06T01:36:16;8.80;72.10
42683;DHT22;28293;50.930;3.464;2023-04-06T01:38:42;8.80;72.20
42683;DHT22;28293;50.930;3.464;2023-04-06T01:41:08;8.80;72.20
42683;DHT22;28293;50.930;3.464;2023-04-06T01:43:34;8.80;72.00
42683;DHT22;28293;50.930;3.464;2023-04-06T01:46:00;8.80;72.00
42683;DHT22;28293;50.930;3.464;2023-04-06T01:48:26;8.80;72.10
42683;DHT22;28293;50.930;3.464;2023-04-06T01:50:53;8.80;71.90
42683;DHT22;28293;50.930;3.464;2023-04-06T01:53:18;8.80;72.00
42683;DHT22;28293;50.930;3.464;2023-04-06T01:55:44;8.70;72.00
42683;DHT22;28293;50.930;3.464;2023-04-06T01:58:11;8.70;72.00
42683;DHT22;28293;50.930;3.464;2023-04-06T02:00:36;8.70;72.00
42683;DHT22;28293;50.930;3.464;2023-04-06T02:03:02;8.70;72.00
42683;DHT22;28293;50.930;3.464;2023-04-06T02:05:30;8.70;72.00
42683;DHT22;28293;50.930;3.464;2023-04-06T02:07:56;8.60;71.90
42683;DHT22;28293;50.930;3.464;2023-04-06T02:10:22;8.70;71.90
42683;DHT22;28293;50.930;3.464;2023-04-06T02:12:49;8.60;71.90
42683;DHT22;28293;50.930;3.464;2023-04-06T02:15:15;8.70;71.80
42683;DHT22;28293;50.930;3.464;2023-04-06T02:17:42;8.60;71.80
42683;DHT22;28293;50.930;3.464;2023-04-06T02:20:08;8.60;71.70
42683;DHT22;28293;50.930;3.464;2023-04-06T02:22:35;8.60;71.80
42683;DHT22;28293;50.930;3.464;2023-04-06T02:25:01;8.60;71.70
42683;DHT22;28293;50.930;3.464;2023-04-06T02:27:27;8.60;71.80
42683;DHT22;28293;50.930;3.464;2023-04-06T02:29:52;8.60;71.80
42683;DHT22;28293;50.930;3.464;2023-04-06T02:32:18;8.60;71.70
42683;DHT22;28293;50.930;3.464;2023-04-06T02:34:44;8.60;71.60
42683;DHT22;28293;50.930;3.464;2023-04-06T02:37:09;8.60;71.60
42683;DHT22;28293;50.930;3.464;2023-04-06T02:39:35;8.60;71.60
42683;DHT22;28293;50.930;3.464;2023-04-06T02:42:01;8.60;71.50
42683;DHT22;28293;50.930;3.464;2023-04-06T02:44:26;8.60;71.60
42683;DHT22;28293;50.930;3.464;2023-04-06T02:46:52;8.60;71.80
42683;DHT22;28293;50.930;3.464;2023-04-06T02:49:18;8.60;72.00
42683;DHT22;28293;50.930;3.464;2023-04-06T02:51:44;8.60;71.90
42683;DHT22;28293;50.930;3.464;2023-04-06T02:54:09;8.60;72.00
42683;DHT22;28293;50.930;3.464;2023-04-06T02:56:35;8.60;72.10
42683;DHT22;28293;50.930;3.464;2023-04-06T02:59:01;8.60;72.20
42683;DHT22;28293;50.930;3.464;2023-04-06T03:01:27;8.60;72.50
42683;DHT22;28293;50.930;3.464;2023-04-06T03:03:52;8.60;72.70
42683;DHT22;28293;50.930;3.464;2023-04-06T03:06:18;8.60;73.20
42683;DHT22;28293;50.930;3.464;2023-04-06T03:08:44;8.60;73.30
42683;DHT22;28293;50.930;3.464;2023-04-06T03:11:09;8.60;73.40
42683;DHT22;28293;50.930;3.464;2023-04-06T03:13:36;8.60;73.60
42683;DHT22;28293;50.930;3.464;2023-04-06T03:16:06;8.60;73.70
42683;DHT22;28293;50.930;3.464;2023-04-06T03:18:32;8.60;73.70
42683;DHT22;28293;50.930;3.464;2023-04-06T03:20:58;8.60;73.80
42683;DHT22;28293;50.930;3.464;2023-04-06T03:23:25;8.60;74.00
42683;DHT22;28293;50.930;3.464;2023-04-06T03:25:51;8.60;74.10
42683;DHT22;28293;50.930;3.464;2023-04-06T03:28:17;8.60;74.30
42683;DHT22;28293;50.930;3.464;2023-04-06T03:30:42;8.60;74.30
42683;DHT22;28293;50.930;3.464;2023-04-06T03:33:08;8.60;74.50
42683;DHT22;28293;50.930;3.464;2023-04-06T03:35:34;8.60;74.70
42683;DHT22;28293;50.930;3.464;2023-04-06T03:37:59;8.60;74.80
42683;DHT22;28293;50.930;3.464;2023-04-06T03:40:25;8.60;74.90
42683;DHT22;28293;50.930;3.464;2023-04-06T03:42:51;8.60;75.00
42683;DHT22;28293;50.930;3.464;2023-04-06T03:45:17;8.60;75.00
42683;DHT22;28293;50.930;3.464;2023-04-06T03:47:43;8.60;75.20
42683;DHT22;28293;50.930;3.464;2023-04-06T03:50:09;8.60;75.40
42683;DHT22;28293;50.930;3.464;2023-04-06T03:52:35;8.60;75.40
42683;DHT22;28293;50.930;3.464;2023-04-06T03:55:02;8.60;75.60
42683;DHT22;28293;50.930;3.464;2023-04-06T03:57:27;8.60;75.80
42683;DHT22;28293;50.930;3.464;2023-04-06T03:59:53;8.60;76.10
42683;DHT22;28293;50.930;3.464;2023-04-06T04:02:19;8.60;76.10
42683;DHT22;28293;50.930;3.464;2023-04-06T04:04:44;8.60;76.20
42683;DHT22;28293;50.930;3.464;2023-04-06T04:07:10;8.60;76.40
42683;DHT22;28293;50.930;3.464;2023-04-06T04:09:37;8.60;76.50
42683;DHT22;28293;50.930;3.464;2023-04-06T04:12:03;8.60;77.00
42683;DHT22;28293;50.930;3.464;2023-04-06T04:14:28;8.60;77.20
42683;DHT22;28293;50.930;3.464;2023-04-06T04:16:54;8.60;77.30
42683;DHT22;28293;50.930;3.464;2023-04-06T04:19:20;8.60;77.40
42683;DHT22;28293;50.930;3.464;2023-04-06T04:21:46;8.60;77.70
42683;DHT22;28293;50.930;3.464;2023-04-06T04:24:12;8.60;78.00
42683;DHT22;28293;50.930;3.464;2023-04-06T04:26:39;8.60;78.40
42683;DHT22;28293;50.930;3.464;2023-04-06T04:29:05;8.60;79.20
42683;DHT22;28293;50.930;3.464;2023-04-06T04:31:31;8.60;79.90
42683;DHT22;28293;50.930;3.464;2023-04-06T04:33:58;8.60;80.00
42683;DHT22;28293;50.930;3.464;2023-04-06T04:36:23;8.60;80.80
42683;DHT22;28293;50.930;3.464;2023-04-06T04:38:51;8.60;81.10
42683;DHT22;28293;50.930;3.464;2023-04-06T04:41:17;8.60;81.70
42683;DHT22;28293;50.930;3.464;2023-04-06T04:43:43;8.60;81.90
42683;DHT22;28293;50.930;3.464;2023-04-06T04:46:09;8.60;82.00
42683;DHT22;28293;50.930;3.464;2023-04-06T04:48:35;8.60;82.40
42683;DHT22;28293;50.930;3.464;2023-04-06T04:51:01;8.60;82.40
42683;DHT22;28293;50.930;3.464;2023-04-06T04:53:26;8.60;82.70
42683;DHT22;28293;50.930;3.464;2023-04-06T04:55:52;8.60;82.60
42683;DHT22;28293;50.930;3.464;2023-04-06T04:58:18;8.60;82.70
42683;DHT22;28293;50.930;3.464;2023-04-06T05:00:45;8.60;82.90
42683;DHT22;28293;50.930;3.464;2023-04-06T05:03:19;8.60;83.10
42683;DHT22;28293;50.930;3.464;2023-04-06T05:05:46;8.60;83.20
42683;DHT22;28293;50.930;3.464;2023-04-06T05:08:12;8.60;83.40
42683;DHT22;28293;50.930;3.464;2023-04-06T05:10:38;8.60;83.50
42683;DHT22;28293;50.930;3.464;2023-04-06T05:13:03;8.60;83.70
42683;DHT22;28293;50.930;3.464;2023-04-06T05:15:29;8.60;83.70
42683;DHT22;28293;50.930;3.464;2023-04-06T05:17:55;8.60;83.80
42683;DHT22;28293;50.930;3.464;2023-04-06T05:20:21;8.60;84.00
42683;DHT22;28293;50.930;3.464;2023-04-06T05:22:47;8.50;84.20
42683;DHT22;28293;50.930;3.464;2023-04-06T05:25:13;8.60;84.30
42683;DHT22;28293;50.930;3.464;2023-04-06T05:27:39;8.50;84.60
42683;DHT22;28293;50.930;3.464;2023-04-06T05:30:07;8.40;84.70
42683;DHT22;28293;50.930;3.464;2023-04-06T05:32:33;8.40;84.60
42683;DHT22;28293;50.930;3.464;2023-04-06T05:34:59;8.30;84.80
42683;DHT22;28293;50.930;3.464;2023-04-06T05:37:25;8.30;84.70
42683;DHT22;28293;50.930;3.464;2023-04-06T05:39:51;8.40;84.80
42683;DHT22;28293;50.930;3.464;2023-04-06T05:42:16;8.30;84.80
42683;DHT22;28293;50.930;3.464;2023-04-06T05:44:42;8.30;85.00
42683;DHT22;28293;50.930;3.464;2023-04-06T05:47:08;8.20;84.80
42683;DHT22;28293;50.930;3.464;2023-04-06T05:49:34;8.20;84.70
42683;DHT22;28293;50.930;3.464;2023-04-06T05:52:00;8.20;84.60
42683;DHT22;28293;50.930;3.464;2023-04-06T05:54:26;8.20;84.40
42683;DHT22;28293;50.930;3.464;2023-04-06T05:56:52;8.20;84.50
42683;DHT22;28293;50.930;3.464;2023-04-06T05:59:17;8.20;84.50
42683;DHT22;28293;50.930;3.464;2023-04-06T06:01:43;8.20;84.70
42683;DHT22;28293;50.930;3.464;2023-04-06T06:04:09;8.20;84.50
42683;DHT22;28293;50.930;3.464;2023-04-06T06:06:35;8.20;84.50
42683;DHT22;28293;50.930;3.464;2023-04-06T06:09:01;8.20;84.30
42683;DHT22;28293;50.930;3.464;2023-04-06T06:11:29;8.20;84.50
42683;DHT22;28293;50.930;3.464;2023-04-06T06:13:55;8.10;84.50
42683;DHT22;28293;50.930;3.464;2023-04-06T06:16:21;8.20;84.70
42683;DHT22;28293;50.930;3.464;2023-04-06T06:18:46;8.20;84.70
42683;DHT22;28293;50.930;3.464;2023-04-06T06:21:12;8.20;84.60
42683;DHT22;28293;50.930;3.464;2023-04-06T06:23:38;8.10;84.30
42683;DHT22;28293;50.930;3.464;2023-04-06T06:26:04;8.10;84.70
42683;DHT22;28293;50.930;3.464;2023-04-06T06:28:31;8.20;85.10
42683;DHT22;28293;50.930;3.464;2023-04-06T06:30:56;8.20;84.90
42683;DHT22;28293;50.930;3.464;2023-04-06T06:33:22;8.10;85.10
42683;DHT22;28293;50.930;3.464;2023-04-06T06:35:48;8.10;85.10
42683;DHT22;28293;50.930;3.464;2023-04-06T06:38:14;8.30;85.20
42683;DHT22;28293;50.930;3.464;2023-04-06T06:40:40;8.30;85.30
42683;DHT22;28293;50.930;3.464;2023-04-06T06:43:06;8.30;85.00
42683;DHT22;28293;50.930;3.464;2023-04-06T06:45:32;8.30;85.10
42683;DHT22;28293;50.930;3.464;2023-04-06T06:47:58;8.40;85.10
42683;DHT22;28293;50.930;3.464;2023-04-06T06:50:24;8.40;85.00
42683;DHT22;28293;50.930;3.464;2023-04-06T06:52:50;8.50;84.70
42683;DHT22;28293;50.930;3.464;2023-04-06T06:55:16;8.50;84.80
42683;DHT22;28293;50.930;3.464;2023-04-06T06:57:41;8.60;84.80
42683;DHT22;28293;50.930;3.464;2023-04-06T07:00:12;8.60;84.90
42683;DHT22;28293;50.930;3.464;2023-04-06T07:02:38;8.50;85.00
42683;DHT22;28293;50.930;3.464;2023-04-06T07:05:05;8.50;84.90
42683;DHT22;28293;50.930;3.464;2023-04-06T07:07:32;8.50;85.00
42683;DHT22;28293;50.930;3.464;2023-04-06T07:09:59;8.40;85.10
42683;DHT22;28293;50.930;3.464;2023-04-06T07:12:25;8.40;85.40
42683;DHT22;28293;50.930;3.464;2023-04-06T07:14:50;8.40;85.20
42683;DHT22;28293;50.930;3.464;2023-04-06T07:17:16;8.40;85.40
42683;DHT22;28293;50.930;3.464;2023-04-06T07:19:42;8.40;85.40
42683;DHT22;28293;50.930;3.464;2023-04-06T07:22:08;8.40;85.70
42683;DHT22;28293;50.930;3.464;2023-04-06T07:24:33;8.40;85.80
42683;DHT22;28293;50.930;3.464;2023-04-06T07:26:59;8.40;85.90
42683;DHT22;28293;50.930;3.464;2023-04-06T07:29:26;8.40;85.80
42683;DHT22;28293;50.930;3.464;2023-04-06T07:31:53;8.50;86.00
42683;DHT22;28293;50.930;3.464;2023-04-06T07:34:19;8.50;85.80
42683;DHT22;28293;50.930;3.464;2023-04-06T07:36:44;8.50;85.80
42683;DHT22;28293;50.930;3.464;2023-04-06T07:39:10;8.50;85.70
42683;DHT22;28293;50.930;3.464;2023-04-06T07:41:36;8.50;85.90
42683;DHT22;28293;50.930;3.464;2023-04-06T07:44:02;8.30;85.80
42683;DHT22;28293;50.930;3.464;2023-04-06T07:46:28;8.40;86.30
42683;DHT22;28293;50.930;3.464;2023-04-06T07:48:55;8.50;86.30
42683;DHT22;28293;50.930;3.464;2023-04-06T07:51:21;8.50;86.30
42683;DHT22;28293;50.930;3.464;2023-04-06T07:53:47;8.50;86.50
42683;DHT22;28293;50.930;3.464;2023-04-06T07:56:12;8.60;86.50
42683;DHT22;28293;50.930;3.464;2023-04-06T07:58:39;8.60;86.60
42683;DHT22;28293;50.930;3.464;2023-04-06T08:01:04;8.50;86.50
42683;DHT22;28293;50.930;3.464;2023-04-06T08:03:32;8.60;86.80
42683;DHT22;28293;50.930;3.464;2023-04-06T08:05:58;8.70;86.60
42683;DHT22;28293;50.930;3.464;2023-04-06T08:08:24;8.70;86.30
42683;DHT22;28293;50.930;3.464;2023-04-06T08:10:50;8.70;86.40
42683;DHT22;28293;50.930;3.464;2023-04-06T08:13:15;8.90;86.60
42683;DHT22;28293;50.930;3.464;2023-04-06T08:15:42;8.90;86.20
42683;DHT22;28293;50.930;3.464;2023-04-06T08:18:08;8.90;86.10
42683;DHT22;28293;50.930;3.464;2023-04-06T08:20:34;8.90;85.90
42683;DHT22;28293;50.930;3.464;2023-04-06T08:23:01;8.80;86.10
42683;DHT22;28293;50.930;3.464;2023-04-06T08:25:26;8.80;86.20
42683;DHT22;28293;50.930;3.464;2023-04-06T08:27:52;8.80;86.30
42683;DHT22;28293;50.930;3.464;2023-04-06T08:30:18;8.80;86.30
42683;DHT22;28293;50.930;3.464;2023-04-06T08:32:45;8.90;86.30
42683;DHT22;28293;50.930;3.464;2023-04-06T08:35:11;8.80;86.60
42683;DHT22;28293;50.930;3.464;2023-04-06T08:37:37;8.80;86.50
42683;DHT22;28293;50.930;3.464;2023-04-06T08:40:03;8.90;86.60
42683;DHT22;28293;50.930;3.464;2023-04-06T08:42:32;9.00;86.80
42683;DHT22;28293;50.930;3.464;2023-04-06T08:45:00;9.00;86.70
42683;DHT22;28293;50.930;3.464;2023-04-06T08:47:26;9.10;86.50
42683;DHT22;28293;50.930;3.464;2023-04-06T08:49:53;9.00;86.50
42683;DHT22;28293;50.930;3.464;2023-04-06T08:52:20;9.10;86.80
42683;DHT22;28293;50.930;3.464;2023-04-06T08:54:45;9.00;86.60
42683;DHT22;28293;50.930;3.464;2023-04-06T08:57:12;8.90;86.90
42683;DHT22;28293;50.930;3.464;2023-04-06T08:59:39;9.00;87.00
42683;DHT22;28293;50.930;3.464;2023-04-06T09:02:06;8.80;87.00
42683;DHT22;28293;50.930;3.464;2023-04-06T09:04:34;9.00;87.30
42683;DHT22;28293;50.930;3.464;2023-04-06T09:07:01;9.00;87.10
42683;DHT22;28293;50.930;3.464;2023-04-06T09:09:26;9.00;87.00
42683;DHT22;28293;50.930;3.464;2023-04-06T09:11:52;9.10;87.00
42683;DHT22;28293;50.930;3.464;2023-04-06T09:14:36;9.10;87.10
42683;DHT22;28293;50.930;3.464;2023-04-06T09:17:03;9.00;87.40
42683;DHT22;28293;50.930;3.464;2023-04-06T09:19:28;9.10;87.60
42683;DHT22;28293;50.930;3.464;2023-04-06T09:22:05;9.00;87.90
42683;DHT22;28293;50.930;3.464;2023-04-06T09:27:11;9.10;88.20
42683;DHT22;28293;50.930;3.464;2023-04-06T09:29:37;9.20;88.20
42683;DHT22;28293;50.930;3.464;2023-04-06T09:32:04;9.10;87.90
42683;DHT22;28293;50.930;3.464;2023-04-06T09:34:30;9.20;88.20
42683;DHT22;28293;50.930;3.464;2023-04-06T09:36:56;9.30;88.10
42683;DHT22;28293;50.930;3.464;2023-04-06T09:39:22;9.40;88.00
42683;DHT22;28293;50.930;3.464;2023-04-06T09:41:52;9.40;88.20
42683;DHT22;28293;50.930;3.464;2023-04-06T09:44:18;9.30;88.20
42683;DHT22;28293;50.930;3.464;2023-04-06T09:46:46;9.20;88.10
42683;DHT22;28293;50.930;3.464;2023-04-06T09:49:12;9.20;88.30
42683;DHT22;28293;50.930;3.464;2023-04-06T09:51:46;9.20;88.40
42683;DHT22;28293;50.930;3.464;2023-04-06T09:54:17;9.20;88.40
42683;DHT22;28293;50.930;3.464;2023-04-06T09:59:34;9.30;88.70
42683;DHT22;28293;50.930;3.464;2023-04-06T10:02:05;9.30;88.80
42683;DHT22;28293;50.930;3.464;2023-04-06T10:07:05;9.40;89.10
42683;DHT22;28293;50.930;3.464;2023-04-06T10:09:32;9.40;89.00
42683;DHT22;28293;50.930;3.464;2023-04-06T10:12:07;9.40;89.10
42683;DHT22;28293;50.930;3.464;2023-04-06T10:14:34;9.40;88.90
42683;DHT22;28293;50.930;3.464;2023-04-06T10:17:04;9.40;89.20
42683;DHT22;28293;50.930;3.464;2023-04-06T10:20:24;9.40;89.20
42683;DHT22;28293;50.930;3.464;2023-04-06T10:23:04;9.40;89.30
42683;DHT22;28293;50.930;3.464;2023-04-06T10:25:32;9.40;89.40
42683;DHT22;28293;50.930;3.464;2023-04-06T10:30:28;9.50;89.40
42683;DHT22;28293;50.930;3.464;2023-04-06T10:32:54;9.50;89.60
42683;DHT22;28293;50.930;3.464;2023-04-06T10:35:20;9.50;89.60
42683;DHT22;28293;50.930;3.464;2023-04-06T10:38:03;9.60;89.70
42683;DHT22;28293;50.930;3.464;2023-04-06T10:40:29;9.60;89.60
42683;DHT22;28293;50.930;3.464;2023-04-06T10:43:10;9.60;89.50
42683;DHT22;28293;50.930;3.464;2023-04-06T10:45:37;9.70;89.60
42683;DHT22;28293;50.930;3.464;2023-04-06T10:48:13;9.90;89.50
42683;DHT22;28293;50.930;3.464;2023-04-06T10:50:44;9.80;89.30
42683;DHT22;28293;50.930;3.464;2023-04-06T10:53:10;9.70;89.10
42683;DHT22;28293;50.930;3.464;2023-04-06T10:55:39;9.70;89.30
42683;DHT22;28293;50.930;3.464;2023-04-06T10:58:09;9.70;89.60
42683;DHT22;28293;50.930;3.464;2023-04-06T11:00:36;9.70;89.70
42683;DHT22;28293;50.930;3.464;2023-04-06T11:03:08;9.60;89.70
42683;DHT22;28293;50.930;3.464;2023-04-06T11:05:35;9.60;89.80
42683;DHT22;28293;50.930;3.464;2023-04-06T11:08:01;9.60;89.80
42683;DHT22;28293;50.930;3.464;2023-04-06T11:10:26;9.70;89.70
42683;DHT22;28293;50.930;3.464;2023-04-06T11:12:56;9.70;89.60
42683;DHT22;28293;50.930;3.464;2023-04-06T11:15:22;9.70;89.70
42683;DHT22;28293;50.930;3.464;2023-04-06T11:17:48;9.70;89.90
42683;DHT22;28293;50.930;3.464;2023-04-06T11:20:15;9.80;89.70
42683;DHT22;28293;50.930;3.464;2023-04-06T11:22:51;9.80;89.40
42683;DHT22;28293;50.930;3.464;2023-04-06T11:25:17;9.60;89.50
42683;DHT22;28293;50.930;3.464;2023-04-06T11:27:44;9.70;89.80
42683;DHT22;28293;50.930;3.464;2023-04-06T11:30:11;9.60;89.70
42683;DHT22;28293;50.930;3.464;2023-04-06T11:32:44;9.70;90.10
42683;DHT22;28293;50.930;3.464;2023-04-06T11:35:23;9.70;89.80
42683;DHT22;28293;50.930;3.464;2023-04-06T11:37:52;9.70;89.90
42683;DHT22;28293;50.930;3.464;2023-04-06T11:40:21;9.70;89.90
42683;DHT22;28293;50.930;3.464;2023-04-06T11:42:55;9.90;89.90
42683;DHT22;28293;50.930;3.464;2023-04-06T11:45:21;9.90;89.70
42683;DHT22;28293;50.930;3.464;2023-04-06T11:47:56;9.90;89.40
42683;DHT22;28293;50.930;3.464;2023-04-06T11:50:23;9.80;89.40
42683;DHT22;28293;50.930;3.464;2023-04-06T11:53:01;9.80;89.40
42683;DHT22;28293;50.930;3.464;2023-04-06T11:55:28;9.80;89.40
42683;DHT22;28293;50.930;3.464;2023-04-06T11:57:54;9.80;89.60
42683;DHT22;28293;50.930;3.464;2023-04-06T12:00:21;9.80;89.90
42683;DHT22;28293;50.930;3.464;2023-04-06T12:02:48;9.80;90.00
42683;DHT22;28293;50.930;3.464;2023-04-06T12:05:13;10.00;89.80
42683;DHT22;28293;50.930;3.464;2023-04-06T12:07:39;10.00;89.90
42683;DHT22;28293;50.930;3.464;2023-04-06T12:10:05;10.10;89.80
42683;DHT22;28293;50.930;3.464;2023-04-06T12:12:31;10.10;89.80
42683;DHT22;28293;50.930;3.464;2023-04-06T12:14:57;10.10;89.80
42683;DHT22;28293;50.930;3.464;2023-04-06T12:17:24;10.00;89.90
42683;DHT22;28293;50.930;3.464;2023-04-06T12:19:50;10.10;90.00
42683;DHT22;28293;50.930;3.464;2023-04-06T12:22:17;10.10;90.00
42683;DHT22;28293;50.930;3.464;2023-04-06T12:24:43;10.20;89.80
42683;DHT22;28293;50.930;3.464;2023-04-06T12:27:08;10.20;89.60
42683;DHT22;28293;50.930;3.464;2023-04-06T12:29:36;10.40;89.60
42683;DHT22;28293;50.930;3.464;2023-04-06T12:32:02;10.40;89.40
42683;DHT22;28293;50.930;3.464;2023-04-06T12:34:28;10.30;89.60
42683;DHT22;28293;50.930;3.464;2023-04-06T12:36:53;10.50;89.60
42683;DHT22;28293;50.930;3.464;2023-04-06T12:39:19;10.50;89.40
42683;DHT22;28293;50.930;3.464;2023-04-06T12:41:45;10.60;89.30
42683;DHT22;28293;50.930;3.464;2023-04-06T12:44:11;10.60;89.30
42683;DHT22;28293;50.930;3.464;2023-04-06T12:46:37;10.60;89.10
42683;DHT22;28293;50.930;3.464;2023-04-06T12:49:03;10.60;89.20
42683;DHT22;28293;50.930;3.464;2023-04-06T12:51:28;10.60;89.40
42683;DHT22;28293;50.930;3.464;2023-04-06T12:53:54;10.60;89.30
42683;DHT22;28293;50.930;3.464;2023-04-06T12:56:20;10.60;89.40
42683;DHT22;28293;50.930;3.464;2023-04-06T12:58:49;10.70;89.60
42683;DHT22;28293;50.930;3.464;2023-04-06T13:01:15;10.60;89.50
42683;DHT22;28293;50.930;3.464;2023-04-06T13:03:41;10.60;89.80
42683;DHT22;28293;50.930;3.464;2023-04-06T13:06:07;10.70;89.80
42683;DHT22;28293;50.930;3.464;2023-04-06T13:08:34;10.70;89.80
42683;DHT22;28293;50.930;3.464;2023-04-06T13:10:59;10.80;90.00
42683;DHT22;28293;50.930;3.464;2023-04-06T13:13:27;10.90;90.10
42683;DHT22;28293;50.930;3.464;2023-04-06T13:15:55;10.90;90.00
42683;DHT22;28293;50.930;3.464;2023-04-06T13:18:22;11.10;90.10
42683;DHT22;28293;50.930;3.464;2023-04-06T13:20:48;11.10;89.60
42683;DHT22;28293;50.930;3.464;2023-04-06T13:23:15;11.10;89.60
42683;DHT22;28293;50.930;3.464;2023-04-06T13:25:41;11.20;89.70
42683;DHT22;28293;50.930;3.464;2023-04-06T13:28:08;11.40;89.60
42683;DHT22;28293;50.930;3.464;2023-04-06T13:30:34;11.40;89.50
42683;DHT22;28293;50.930;3.464;2023-04-06T13:33:01;11.50;89.10
42683;DHT22;28293;50.930;3.464;2023-04-06T13:35:27;11.50;89.30
42683;DHT22;28293;50.930;3.464;2023-04-06T13:37:52;11.50;89.50
42683;DHT22;28293;50.930;3.464;2023-04-06T13:40:19;11.60;89.60
42683;DHT22;28293;50.930;3.464;2023-04-06T13:42:46;11.70;89.20
42683;DHT22;28293;50.930;3.464;2023-04-06T13:45:13;11.80;89.20
42683;DHT22;28293;50.930;3.464;2023-04-06T13:47:39;11.90;89.10
42683;DHT22;28293;50.930;3.464;2023-04-06T13:50:05;11.90;88.80
42683;DHT22;28293;50.930;3.464;2023-04-06T13:52:31;12.00;88.80
42683;DHT22;28293;50.930;3.464;2023-04-06T13:54:57;12.00;88.70
42683;DHT22;28293;50.930;3.464;2023-04-06T13:57:22;12.00;88.90
42683;DHT22;28293;50.930;3.464;2023-04-06T13:59:48;12.00;88.90
42683;DHT22;28293;50.930;3.464;2023-04-06T14:02:15;12.10;88.90
42683;DHT22;28293;50.930;3.464;2023-04-06T14:04:41;12.10;89.10
42683;DHT22;28293;50.930;3.464;2023-04-06T14:07:07;12.20;89.10
42683;DHT22;28293;50.930;3.464;2023-04-06T14:09:33;12.20;89.10
42683;DHT22;28293;50.930;3.464;2023-04-06T14:11:59;12.30;89.10
42683;DHT22;28293;50.930;3.464;2023-04-06T14:14:25;12.50;88.90
42683;DHT22;28293;50.930;3.464;2023-04-06T14:16:51;12.60;89.00
42683;DHT22;28293;50.930;3.464;2023-04-06T14:19:17;12.70;88.70
42683;DHT22;28293;50.930;3.464;2023-04-06T14:21:47;12.90;88.50
42683;DHT22;28293;50.930;3.464;2023-04-06T14:24:14;12.90;88.20
42683;DHT22;28293;50.930;3.464;2023-04-06T14:26:40;13.00;87.60
42683;DHT22;28293;50.930;3.464;2023-04-06T14:29:09;13.10;87.80
42683;DHT22;28293;50.930;3.464;2023-04-06T14:31:35;13.10;87.20
42683;DHT22;28293;50.930;3.464;2023-04-06T14:34:02;13.20;87.40
42683;DHT22;28293;50.930;3.464;2023-04-06T14:36:28;13.30;86.60
42683;DHT22;28293;50.930;3.464;2023-04-06T14:38:58;13.10;85.80
42683;DHT22;28293;50.930;3.464;2023-04-06T14:41:24;13.20;85.90
42683;DHT22;28293;50.930;3.464;2023-04-06T14:43:50;13.10;85.90
42683;DHT22;28293;50.930;3.464;2023-04-06T14:46:18;13.20;85.70
42683;DHT22;28293;50.930;3.464;2023-04-06T14:48:44;12.90;84.90
42683;DHT22;28293;50.930;3.464;2023-04-06T14:51:11;12.80;84.00
42683;DHT22;28293;50.930;3.464;2023-04-06T14:53:36;12.70;83.90
42683;DHT22;28293;50.930;3.464;2023-04-06T14:56:02;12.60;83.30
42683;DHT22;28293;50.930;3.464;2023-04-06T14:58:28;12.60;83.40
42683;DHT22;28293;50.930;3.464;2023-04-06T15:00:59;12.70;83.20
42683;DHT22;28293;50.930;3.464;2023-04-06T15:03:26;12.60;83.50
42683;DHT22;28293;50.930;3.464;2023-04-06T15:05:52;12.60;83.30
42683;DHT22;28293;50.930;3.464;2023-04-06T15:08:18;12.60;83.60
42683;DHT22;28293;50.930;3.464;2023-04-06T15:10:46;12.60;83.60
42683;DHT22;28293;50.930;3.464;2023-04-06T15:13:12;12.60;83.90
42683;DHT22;28293;50.930;3.464;2023-04-06T15:15:38;12.70;83.50
42683;DHT22;28293;50.930;3.464;2023-04-06T15:18:05;12.70;83.10
42683;DHT22;28293;50.930;3.464;2023-04-06T15:20:32;12.80;83.60
42683;DHT22;28293;50.930;3.464;2023-04-06T15:22:57;12.90;83.60
42683;DHT22;28293;50.930;3.464;2023-04-06T15:25:23;12.80;83.10
42683;DHT22;28293;50.930;3.464;2023-04-06T15:27:49;12.80;82.90
42683;DHT22;28293;50.930;3.464;2023-04-06T15:30:15;12.80;83.20
42683;DHT22;28293;50.930;3.464;2023-04-06T15:32:58;12.80;83.10
42683;DHT22;28293;50.930;3.464;2023-04-06T15:35:26;12.70;82.90
42683;DHT22;28293;50.930;3.464;2023-04-06T15:37:53;12.60;82.60
42683;DHT22;28293;50.930;3.464;2023-04-06T15:40:18;12.60;82.70
42683;DHT22;28293;50.930;3.464;2023-04-06T15:42:44;12.70;83.00
42683;DHT22;28293;50.930;3.464;2023-04-06T15:45:11;12.90;82.60
42683;DHT22;28293;50.930;3.464;2023-04-06T15:47:37;12.90;82.20
42683;DHT22;28293;50.930;3.464;2023-04-06T15:50:04;13.00;82.10